Flight Track Log - Related Links

Times and Time Zones

All times are in EDT time to prevent confusion due to time zone crossing. See the ASQ4252 flight status page for this flight to view local times or setup timezone preferences in your user account.


Time Position Orientation Groundspeed Altitude Reporting Facility
EDT Latitude Longitude Course Direction KTS MPH feet Rate Location/Type
Sat 10:09:00 PM 38.4455 -77.5431 185° South  Level FlightAware Approximate
Sat 10:10:00 PM 38.3597 -77.6188 230° Southwest  Level FlightAware Approximate
Sat 10:11:00 PM 38.2740 -77.7348 226° Southwest  Level FlightAware Approximate
Sat 10:12:00 PM 38.1924 -77.8553 230° Southwest  Level FlightAware Approximate
Sat 10:13:00 PM 38.1127 -77.9778 230° Southwest  Level FlightAware Approximate
Sat 10:14:00 PM 38.0328 -78.0999 230° Southwest  Level FlightAware Approximate
Sat 10:15:00 PM 37.9354 -78.1050 148° Southeast  Level FlightAware Approximate
Sat 10:16:00 PM 37.8269 -78.0272 156° South  Level FlightAware Approximate
Sat 10:17:00 PM 37.7181 -77.9514 142° Southeast  Level FlightAware Approximate
Sat 10:18:00 PM 37.6086 -77.8812 146° Southeast  Level FlightAware Approximate
Sat 10:19:00 PM 37.5167 -77.7948 90° East  Level FlightAware Approximate
Sat 10:20:00 PM 37.5167 -77.6372 90° East  Level FlightAware Approximate
Sat 10:21:00 PM 37.5000 -77.4828 90° East  Level FlightAware Approximate
Sat 10:22:00 PM 37.5000 -77.3252 90° East  Level FlightAware Approximate
Sat 10:23:00 PM 37.5000 -77.3167 90° East  Level FlightAware Approximate
Sat 10:24:00 PM 37.5052 -77.3197 90° East  Level Estimated
Sat 10:25:00 PM 37.5000 -77.3167 90° East  Level FlightAware Approximate
Sat 10:26:00 PM 37.5052 -77.3197 90° East  Level Estimated
Sat 10:27:00 PM 37.5000 -77.3167 90° East  Level FlightAware Approximate
Sat 10:28:00 PM 37.5052 -77.3197 90° East  Level Estimated

Login

Don't have an account? Register now (free) for customized features, flight alerts, and more!